Time;durP1;ratioP1;P1;durP2;ratioP2;P2;SDS_P1;SDS_P2;PMS_P1;PMS_P2;Temp;Humidity;BMP_temperature;BMP_pressure;BME280_temperature;BME280_humidity;BME280_pressure;Samples;Min_cycle;Max_cycle;Signal;HPM_P1;HPM_P2
2024/01/10 00:00:55;;;;;;;49.92;17.58;;;;;;;-7.55;84.27;103155.09;5045633;28;20374;-66
2024/01/10 00:03:20;;;;;;;43.43;17.57;;;;;;;-7.55;84.09;103154.19;5040996;28;20398;-63
2024/01/10 00:05:45;;;;;;;40.67;15.57;;;;;;;-7.57;84.29;103150.44;5040390;28;20370;-67
2024/01/10 00:08:11;;;;;;;39.17;15.00;;;;;;;-7.56;84.44;103144.63;5046617;28;20467;-63
2024/01/10 00:10:36;;;;;;;46.97;15.90;;;;;;;-7.56;84.38;103152.31;5040809;28;20099;-66
2024/01/10 00:13:02;;;;;;;46.87;16.23;;;;;;;-7.58;84.36;103157.22;5040927;28;20146;-66
2024/01/10 00:15:27;;;;;;;51.27;15.83;;;;;;;-7.60;84.42;103153.50;5040546;28;20033;-64
2024/01/10 00:17:52;;;;;;;32.05;13.02;;;;;;;-7.61;84.72;103154.19;5040382;28;20365;-68
2024/01/10 00:20:18;;;;;;;33.77;12.67;;;;;;;-7.63;84.79;103153.03;5041691;28;20109;-63
2024/01/10 00:22:43;;;;;;;43.60;16.00;;;;;;;-7.63;84.91;103142.75;5042904;28;20053;-63
2024/01/10 00:29:51;;;;;;;22.98;10.02;;;;;;;-7.71;85.21;103133.00;5100741;27;20359;-66
2024/01/10 00:32:17;;;;;;;44.33;16.30;;;;;;;-7.73;85.56;103131.81;5079573;28;20047;-68
2024/01/10 00:39:19;;;;;;;34.47;14.77;;;;;;;-7.66;85.22;103136.25;5058837;28;20938;-65
2024/01/10 00:46:32;;;;;;;39.33;15.88;;;;;;;-7.60;85.31;103132.03;4997755;27;20427;-67
2024/01/10 00:48:57;;;;;;;44.27;16.13;;;;;;;-7.58;85.07;103134.13;4982123;28;20038;-65
2024/01/10 00:51:22;;;;;;;48.47;17.52;;;;;;;-7.57;84.86;103135.06;4957250;28;20043;-69
2024/01/10 00:53:48;;;;;;;43.20;16.57;;;;;;;-7.57;85.09;103133.41;4958611;28;20042;-66
2024/01/10 00:56:13;;;;;;;56.63;19.73;;;;;;;-7.57;84.82;103132.50;4958235;28;20050;-66
2024/01/10 01:03:21;;;;;;;49.30;16.88;;;;;;;-7.59;85.05;103127.13;5100872;27;20949;-69
2024/01/10 01:07:28;;;;;;;41.10;15.35;;;;;;;-7.58;85.05;103130.63;5066357;28;20369;-65
2024/01/10 01:09:54;;;;;;;41.83;15.37;;;;;;;-7.59;85.00;103123.63;5053624;28;20033;-68
2024/01/10 01:12:19;;;;;;;47.30;15.43;;;;;;;-7.59;84.85;103132.25;5048328;28;20412;-65
2024/01/10 01:17:17;;;;;;;49.13;20.23;;;;;;;-7.62;84.98;103129.25;4997262;28;20852;-69
2024/01/10 01:19:43;;;;;;;57.80;18.77;;;;;;;-7.65;85.19;103128.78;4978242;28;20042;-65
2024/01/10 01:22:08;;;;;;;50.65;20.30;;;;;;;-7.61;85.09;103120.84;4959030;28;20100;-64
2024/01/10 01:24:34;;;;;;;48.60;18.90;;;;;;;-7.61;85.17;103120.84;4966686;28;20050;-68
2024/01/10 01:26:59;;;;;;;52.67;19.47;;;;;;;-7.62;85.06;103121.53;4966145;28;20039;-63
2024/01/10 01:29:24;;;;;;;54.97;17.87;;;;;;;-7.63;84.96;103117.09;4966545;28;20038;-63
2024/01/10 01:31:50;;;;;;;48.43;17.90;;;;;;;-7.62;85.07;103118.97;4963884;28;20045;-67
2024/01/10 01:34:15;;;;;;;48.35;17.95;;;;;;;-7.65;84.94;103115.97;4968615;28;20043;-65
2024/01/10 01:36:41;;;;;;;51.87;18.47;;;;;;;-7.63;85.03;103116.16;4958513;28;20043;-65
2024/01/10 01:41:36;;;;;;;54.70;20.75;;;;;;;-7.67;84.92;103104.53;5060736;28;20373;-66
2024/01/10 01:44:02;;;;;;;47.63;19.00;;;;;;;-7.68;85.06;103105.22;5043341;28;20033;-72
2024/01/10 01:46:27;;;;;;;43.67;16.13;;;;;;;-7.70;85.31;103113.41;5040002;28;20037;-66
2024/01/10 01:48:53;;;;;;;51.93;19.13;;;;;;;-7.75;85.10;103117.84;5048363;28;20481;-66
2024/01/10 01:55:55;;;;;;;54.50;19.00;;;;;;;-7.87;85.69;103109.22;5080278;27;20399;-68
2024/01/10 01:58:22;;;;;;;56.90;17.92;;;;;;;-7.90;85.76;103107.84;5080219;28;20036;-70
2024/01/10 02:00:48;;;;;;;50.30;18.83;;;;;;;-7.94;85.62;103109.00;5080844;28;20071;-68
2024/01/10 02:03:14;;;;;;;52.05;15.93;;;;;;;-7.99;85.95;103109.03;5080453;28;20071;-67
2024/01/10 02:05:40;;;;;;;56.85;18.88;;;;;;;-8.00;86.25;103104.59;5080624;28;20071;-64
2024/01/10 02:12:47;;;;;;;31.50;14.07;;;;;;;-8.12;86.62;103095.03;5060580;28;20439;-67
2024/01/10 02:15:14;;;;;;;36.03;12.53;;;;;;;-8.11;86.75;103099.47;5043211;28;20036;-66
2024/01/10 02:17:39;;;;;;;36.35;14.32;;;;;;;-8.12;87.01;103097.63;5048531;28;20292;-65
2024/01/10 02:20:12;;;;;;;43.33;16.92;;;;;;;-8.11;87.08;103092.72;5048945;28;20037;-67
2024/01/10 02:22:38;;;;;;;53.53;20.17;;;;;;;-8.07;87.04;103104.38;5040385;28;20053;-64
2024/01/10 02:25:06;;;;;;;47.50;17.57;;;;;;;-8.09;87.12;103100.66;5039965;28;20037;-65
2024/01/10 02:27:32;;;;;;;49.92;17.08;;;;;;;-8.07;86.94;103097.59;5051906;28;20032;-66
2024/01/10 02:30:00;;;;;;;42.58;17.98;;;;;;;-8.07;86.64;103101.81;5052981;28;20836;-63
2024/01/10 02:32:25;;;;;;;44.17;17.70;;;;;;;-8.08;86.94;103097.38;5048354;28;20047;-67
2024/01/10 02:34:50;;;;;;;56.50;18.23;;;;;;;-8.09;86.58;103100.66;5039522;28;20136;-67
2024/01/10 02:37:16;;;;;;;49.10;22.30;;;;;;;-8.10;86.75;103106.47;5046924;28;20477;-69
2024/01/10 02:39:41;;;;;;;53.77;18.67;;;;;;;-8.10;86.87;103101.34;5042069;28;20087;-67
2024/01/10 02:42:06;;;;;;;45.57;16.93;;;;;;;-8.12;87.03;103095.03;5045407;28;20108;-70
2024/01/10 02:44:32;;;;;;;51.70;18.13;;;;;;;-8.10;87.13;103098.78;5039661;28;20038;-72
2024/01/10 02:46:57;;;;;;;48.60;17.25;;;;;;;-8.09;87.01;103098.09;5039434;28;20370;-65
2024/01/10 02:49:22;;;;;;;42.83;14.73;;;;;;;-8.09;86.98;103098.09;5036743;28;20037;-68
2024/01/10 02:54:18;;;;;;;79.90;42.27;;;;;;;-7.98;86.82;103098.06;5019213;28;20939;-64
2024/01/10 02:56:43;;;;;;;54.87;20.43;;;;;;;-7.92;86.69;103098.97;5024333;28;20041;-64
2024/01/10 02:59:09;;;;;;;59.33;19.88;;;;;;;-7.93;86.63;103086.84;5009302;28;20391;-68
2024/01/10 03:01:34;;;;;;;47.30;18.30;;;;;;;-7.91;86.66;103091.53;5013205;28;20033;-64
2024/01/10 03:05:40;;;;;;;39.05;16.52;;;;;;;-7.97;86.61;103081.97;5060195;27;20769;-66
2024/01/10 03:08:06;;;;;;;37.77;14.73;;;;;;;-7.95;86.61;103084.09;5044802;28;20040;-64
2024/01/10 03:10:31;;;;;;;46.75;15.90;;;;;;;-7.94;86.52;103080.78;5042223;28;20044;-66
2024/01/10 03:12:57;;;;;;;47.20;17.80;;;;;;;-7.94;86.41;103080.78;5047613;28;20094;-70
2024/01/10 03:15:23;;;;;;;46.30;19.35;;;;;;;-7.94;86.48;103067.97;5042824;28;20056;-65
2024/01/10 03:17:48;;;;;;;33.07;12.07;;;;;;;-7.91;86.30;103070.06;5027044;28;20045;-68
2024/01/10 03:22:37;;;;;;;48.33;17.80;;;;;;;-7.95;86.52;103072.88;5061057;28;20377;-65
2024/01/10 03:25:02;;;;;;;39.60;15.70;;;;;;;-7.94;85.91;103077.28;5059943;28;20032;-66
2024/01/10 03:27:28;;;;;;;36.77;15.10;;;;;;;-7.94;85.90;103077.28;5053296;28;20492;-65
2024/01/10 03:29:53;;;;;;;50.55;18.67;;;;;;;-7.93;85.99;103071.47;5053445;28;20060;-70
2024/01/10 03:32:18;;;;;;;33.60;12.77;;;;;;;-7.95;86.05;103068.69;5040004;28;20120;-65
2024/01/10 03:34:44;;;;;;;29.07;12.73;;;;;;;-7.99;86.08;103068.91;5040379;28;20029;-70
2024/01/10 03:37:09;;;;;;;53.43;17.90;;;;;;;-8.02;86.16;103063.34;5048337;28;20417;-67
2024/01/10 03:39:35;;;;;;;39.17;13.00;;;;;;;-8.00;86.19;103071.28;5047403;28;20115;-64
2024/01/10 03:42:00;;;;;;;49.88;17.67;;;;;;;-8.00;86.24;103064.50;5048512;28;20040;-68
2024/01/10 03:44:26;;;;;;;49.23;18.43;;;;;;;-7.94;86.20;103075.66;5043270;28;20052;-72
2024/01/10 03:46:52;;;;;;;48.80;19.17;;;;;;;-7.92;86.19;103063.06;5051879;28;20040;-70
2024/01/10 03:49:17;;;;;;;45.57;17.53;;;;;;;-7.91;85.91;103063.31;5043125;28;20063;-64
2024/01/10 03:51:43;;;;;;;50.27;17.63;;;;;;;-7.90;85.84;103066.81;5047053;28;20048;-65
2024/01/10 03:54:08;;;;;;;50.50;17.73;;;;;;;-7.89;85.81;103074.72;5047930;28;20239;-67
2024/01/10 03:59:01;;;;;;;48.28;18.80;;;;;;;-7.88;85.58;103065.38;5105761;27;20895;-72
2024/01/10 04:01:27;;;;;;;49.53;18.02;;;;;;;-7.89;85.43;103072.16;5082085;28;20036;-63
2024/01/10 04:03:52;;;;;;;46.30;17.70;;;;;;;-7.92;85.58;103068.19;5082503;28;20554;-66
2024/01/10 04:06:18;;;;;;;47.00;19.07;;;;;;;-7.91;85.63;103063.31;5081373;28;20043;-66
2024/01/10 04:08:43;;;;;;;48.07;15.53;;;;;;;-7.90;85.64;103071.94;5080988;28;20093;-70
2024/01/10 04:11:09;;;;;;;53.55;20.17;;;;;;;-7.89;85.78;103071.22;5079786;28;20754;-65
2024/01/10 04:13:34;;;;;;;50.00;18.07;;;;;;;-7.88;85.46;103068.88;5080292;28;20115;-69
2024/01/10 04:15:59;;;;;;;51.42;18.20;;;;;;;-7.82;85.72;103062.81;5083908;28;20036;-67
2024/01/10 04:18:25;;;;;;;36.93;14.50;;;;;;;-7.82;85.29;103065.38;5080720;28;20443;-69
2024/01/10 04:20:51;;;;;;;50.67;19.10;;;;;;;-7.81;85.40;103068.19;5080167;28;20055;-63
2024/01/10 04:23:17;;;;;;;43.50;17.00;;;;;;;-7.79;85.17;103068.44;5080170;28;20041;-67
2024/01/10 04:25:42;;;;;;;50.70;20.37;;;;;;;-7.80;85.24;103066.56;5080717;28;20047;-70
2024/01/10 04:30:31;;;;;;;47.97;19.17;;;;;;;-7.78;85.11;103065.13;5027721;28;20367;-69
2024/01/10 04:32:57;;;;;;;45.77;18.23;;;;;;;-7.79;85.00;103074.44;5020792;28;20414;-63
2024/01/10 04:35:22;;;;;;;52.38;18.95;;;;;;;-7.79;84.76;103071.88;5020630;28;20095;-68
2024/01/10 04:37:47;;;;;;;50.57;18.50;;;;;;;-7.78;84.89;103065.13;5020852;28;20065;-63
2024/01/10 04:40:13;;;;;;;52.17;20.17;;;;;;;-7.81;84.76;103064.69;5016857;28;20120;-65
2024/01/10 04:42:38;;;;;;;52.30;19.00;;;;;;;-7.87;84.68;103064.69;5013564;28;20053;-68
2024/01/10 04:45:04;;;;;;;51.57;20.73;;;;;;;-7.96;84.90;103061.69;5020399;28;20489;-64
2024/01/10 04:47:30;;;;;;;45.45;16.90;;;;;;;-8.01;84.78;103059.13;5020290;28;20037;-66
2024/01/10 04:49:55;;;;;;;44.83;17.33;;;;;;;-8.03;84.97;103052.84;5017923;28;20116;-72
2024/01/10 04:52:20;;;;;;;51.63;18.08;;;;;;;-8.04;85.21;103046.78;5020308;28;20409;-65
2024/01/10 04:54:46;;;;;;;51.40;19.47;;;;;;;-8.02;85.06;103049.56;5020340;28;20177;-64
2024/01/10 04:57:11;;;;;;;49.17;18.13;;;;;;;-8.05;85.43;103044.94;5018841;28;20216;-68
2024/01/10 04:59:37;;;;;;;48.37;20.53;;;;;;;-8.07;85.24;103040.25;5019936;28;20037;-65
2024/01/10 05:02:02;;;;;;;55.90;18.40;;;;;;;-8.08;85.00;103043.53;5020993;28;20101;-64
2024/01/10 05:06:57;;;;;;;46.33;18.23;;;;;;;-8.13;85.11;103044.47;5068949;28;20442;-66
2024/01/10 05:09:23;;;;;;;61.63;21.03;;;;;;;-8.15;85.19;103043.31;5059460;28;20116;-65
2024/01/10 05:16:39;;;;;;;53.67;20.17;;;;;;;-8.29;85.68;103054.06;5060213;28;20369;-66
2024/01/10 05:19:04;;;;;;;56.40;19.67;;;;;;;-8.36;85.81;103049.69;5041512;28;20409;-70
2024/01/10 05:24:00;;;;;;;65.65;19.70;;;;;;;-8.37;86.22;103057.13;5081270;27;20418;-65
2024/01/10 05:26:25;;;;;;;48.87;18.20;;;;;;;-8.38;85.96;103056.19;5071394;28;20021;-66
2024/01/10 05:28:51;;;;;;;56.40;18.05;;;;;;;-8.37;86.10;103062.25;5060875;28;20291;-67
2024/01/10 05:31:16;;;;;;;58.00;19.63;;;;;;;-8.36;86.12;103056.44;5039540;28;20145;-69
2024/01/10 05:33:42;;;;;;;48.57;15.10;;;;;;;-8.39;86.31;103058.53;5040491;28;20144;-62
2024/01/10 05:36:11;;;;;;;47.08;19.10;;;;;;;-8.35;86.43;103055.75;5040084;28;20045;-71
2024/01/10 05:38:37;;;;;;;36.70;14.48;;;;;;;-8.31;86.44;103059.00;5040679;28;20124;-66
2024/01/10 05:41:02;;;;;;;47.15;16.27;;;;;;;-8.27;86.34;103050.09;5038767;28;20133;-69
2024/01/10 05:43:27;;;;;;;52.83;18.27;;;;;;;-8.22;86.50;103051.72;5040126;28;20036;-65
2024/01/10 05:45:53;;;;;;;35.43;16.90;;;;;;;-8.18;86.34;103040.28;5040636;28;20060;-66
2024/01/10 05:48:18;;;;;;;30.77;10.90;;;;;;;-8.18;86.15;103047.97;5040020;28;20636;-68
2024/01/10 05:50:44;;;;;;;46.63;18.77;;;;;;;-8.16;86.23;103041.44;5040530;28;20298;-66
2024/01/10 05:53:10;;;;;;;40.73;16.83;;;;;;;-8.12;86.06;103049.84;5040135;28;20060;-67
2024/01/10 05:55:36;;;;;;;39.83;16.58;;;;;;;-8.09;85.95;103041.69;5040290;28;20171;-71
2024/01/10 05:58:02;;;;;;;49.03;16.85;;;;;;;-8.04;85.43;103045.88;5046027;28;20045;-66
2024/01/10 06:00:28;;;;;;;61.38;19.35;;;;;;;-8.04;85.59;103040.75;5054634;28;20051;-66
2024/01/10 06:02:53;;;;;;;50.95;19.17;;;;;;;-7.99;85.58;103047.50;5046279;28;20041;-69
2024/01/10 06:05:19;;;;;;;46.40;17.93;;;;;;;-7.97;85.30;103033.25;5039974;28;20060;-65
2024/01/10 06:07:44;;;;;;;33.23;12.30;;;;;;;-7.91;85.16;103050.50;5050664;28;20112;-64
2024/01/10 06:10:09;;;;;;;45.80;16.33;;;;;;;-7.93;85.20;103049.31;5039755;28;20285;-67
2024/01/10 06:12:35;;;;;;;60.90;21.45;;;;;;;-7.93;85.14;103045.81;5040294;28;20040;-63
2024/01/10 06:15:00;;;;;;;58.80;21.75;;;;;;;-7.92;85.11;103045.13;5039833;28;20052;-66
2024/01/10 06:17:26;;;;;;;46.07;17.00;;;;;;;-7.93;84.98;103044.19;5038199;28;20033;-64
2024/01/10 06:19:51;;;;;;;56.70;18.93;;;;;;;-7.91;84.72;103039.31;5021893;28;20056;-70
2024/01/10 06:22:17;;;;;;;52.05;18.25;;;;;;;-7.93;84.95;103031.38;5049306;28;20098;-67
2024/01/10 06:24:43;;;;;;;52.77;18.33;;;;;;;-7.90;84.89;103039.53;5050129;28;20040;-69
2024/01/10 06:27:09;;;;;;;61.67;21.38;;;;;;;-7.90;84.89;103038.59;5042796;28;20041;-64
2024/01/10 06:29:35;;;;;;;55.33;20.52;;;;;;;-7.93;84.73;103035.56;5043607;28;20503;-64
2024/01/10 06:32:01;;;;;;;47.23;18.93;;;;;;;-7.98;84.88;103039.06;5043706;28;20452;-68
2024/01/10 06:36:52;;;;;;;51.47;19.00;;;;;;;-8.09;84.97;103031.44;5060394;28;20395;-66
2024/01/10 06:39:19;;;;;;;47.20;18.80;;;;;;;-8.10;85.19;103029.56;5059155;28;20068;-70
2024/01/10 06:41:46;;;;;;;47.92;18.40;;;;;;;-8.11;85.34;103033.75;5044513;28;20291;-66
2024/01/10 06:44:11;;;;;;;44.45;18.05;;;;;;;-8.13;85.39;103035.16;5056402;28;20055;-71
2024/01/10 06:46:46;;;;;;;50.30;19.00;;;;;;;-8.13;85.19;103031.66;5002177;27;20369;-70
2024/01/10 06:49:12;;;;;;;57.37;20.40;;;;;;;-8.11;85.25;103027.69;4979268;28;20554;-67
2024/01/10 06:51:37;;;;;;;52.85;18.45;;;;;;;-8.10;85.36;103040.75;4958652;28;20047;-65
2024/01/10 06:56:39;;;;;;;53.45;19.27;;;;;;;-8.07;85.83;103035.13;5060795;28;20446;-67
2024/01/10 06:59:04;;;;;;;50.10;19.23;;;;;;;-8.08;85.98;103023.94;5050754;28;20489;-67
2024/01/10 07:01:29;;;;;;;51.23;21.37;;;;;;;-8.04;85.80;103031.38;5041419;28;20417;-67
2024/01/10 07:03:55;;;;;;;49.60;19.17;;;;;;;-8.04;85.56;103027.91;5046952;28;20370;-67
2024/01/10 07:08:49;;;;;;;53.50;20.75;;;;;;;-8.00;85.64;103037.94;5066147;28;20369;-66
2024/01/10 07:13:40;;;;;;;62.78;21.60;;;;;;;-7.99;85.53;103034.66;5101819;27;20355;-65
2024/01/10 07:16:06;;;;;;;48.15;19.15;;;;;;;-7.96;85.32;103040.25;5104789;28;20023;-66
2024/01/10 07:18:31;;;;;;;44.10;16.00;;;;;;;-7.92;85.76;103042.56;5100665;28;20192;-69
2024/01/10 07:20:57;;;;;;;42.08;15.75;;;;;;;-7.91;85.77;103044.44;5100788;28;20165;-68
2024/01/10 07:23:22;;;;;;;45.87;18.20;;;;;;;-7.95;85.86;103043.03;5101032;28;20236;-66
2024/01/10 07:25:49;;;;;;;42.00;16.00;;;;;;;-7.96;85.78;103041.19;5101168;28;20047;-67
2024/01/10 07:28:15;;;;;;;56.10;18.02;;;;;;;-7.96;85.69;103050.50;5100693;28;20051;-70
2024/01/10 07:30:40;;;;;;;43.05;14.82;;;;;;;-7.97;85.92;103040.94;5100636;28;20039;-65
2024/01/10 07:33:07;;;;;;;55.90;21.45;;;;;;;-7.97;85.88;103041.88;5100584;27;20138;-68
2024/01/10 07:35:33;;;;;;;56.13;21.42;;;;;;;-7.99;86.22;103034.66;5092070;28;20130;-70
2024/01/10 07:37:58;;;;;;;64.75;22.38;;;;;;;-7.96;85.90;103037.69;5100369;28;20118;-65
2024/01/10 07:42:43;;;;;;;63.05;21.75;;;;;;;-8.09;85.95;103039.13;5060395;28;20391;-65
2024/01/10 07:47:21;;;;;;;56.08;21.45;;;;;;;-8.06;86.05;103035.38;5100204;27;20371;-70
2024/01/10 07:49:47;;;;;;;64.03;20.73;;;;;;;-8.02;86.48;103032.56;5100571;28;20040;-68
2024/01/10 07:52:12;;;;;;;36.95;15.80;;;;;;;-7.92;86.50;103029.72;5100700;28;20385;-65
2024/01/10 07:54:37;;;;;;;56.40;19.07;;;;;;;-7.84;86.13;103031.78;5100164;28;20036;-71
2024/01/10 07:57:03;;;;;;;54.73;20.33;;;;;;;-7.78;85.85;103040.41;5099868;28;20059;-71
2024/01/10 07:59:28;;;;;;;53.63;21.17;;;;;;;-7.69;85.87;103031.50;5099874;28;20487;-69
2024/01/10 08:01:56;;;;;;;56.78;19.23;;;;;;;-7.61;85.83;103037.78;5099095;28;20293;-66
2024/01/10 08:06:44;;;;;;;50.75;20.40;;;;;;;-7.48;85.40;103037.25;5057346;27;21632;-64
2024/01/10 08:11:09;;;;;;;60.53;21.85;;;;;;;-7.33;85.28;103040.22;5100549;27;20684;-67
2024/01/10 08:13:34;;;;;;;53.90;18.07;;;;;;;-7.25;85.31;103037.16;5080496;28;20051;-63
2024/01/10 08:15:59;;;;;;;54.85;19.88;;;;;;;-7.17;84.63;103034.06;5080784;28;20294;-71
2024/01/10 08:18:25;;;;;;;44.40;19.00;;;;;;;-7.12;84.77;103028.91;5080245;28;20111;-66
2024/01/10 08:20:50;;;;;;;48.47;17.97;;;;;;;-7.06;84.42;103022.09;5080365;28;20028;-64
2024/01/10 08:23:15;;;;;;;44.50;20.37;;;;;;;-6.95;84.03;103038.09;5080108;28;20130;-70
2024/01/10 08:28:00;;;;;;;49.75;17.83;;;;;;;-6.82;83.54;103034.06;5060376;28;20361;-65
2024/01/10 08:30:26;;;;;;;61.70;21.70;;;;;;;-6.71;83.51;103031.41;5025772;28;20052;-67
2024/01/10 08:35:19;;;;;;;46.45;19.73;;;;;;;-6.56;83.10;103026.81;5121235;27;20873;-66
2024/01/10 08:37:46;;;;;;;35.93;15.60;;;;;;;-6.44;82.32;103035.38;5121876;27;20043;-63
2024/01/10 08:40:14;;;;;;;53.83;18.83;;;;;;;-6.34;82.17;103041.13;5121541;27;20617;-63
2024/01/10 08:42:40;;;;;;;65.88;22.33;;;;;;;-6.26;81.87;103043.13;5121972;27;20039;-70
2024/01/10 08:45:05;;;;;;;41.70;19.10;;;;;;;-6.18;81.52;103039.13;5121708;27;20497;-64
2024/01/10 08:47:32;;;;;;;55.35;17.40;;;;;;;-6.10;81.28;103030.84;5121630;27;20032;-67
2024/01/10 08:50:01;;;;;;;55.67;20.02;;;;;;;-5.97;80.89;103037.00;5121693;27;20093;-62
2024/01/10 08:52:26;;;;;;;48.67;20.13;;;;;;;-5.90;80.71;103034.59;5121421;27;20039;-63
2024/01/10 08:54:51;;;;;;;58.07;20.40;;;;;;;-5.81;80.54;103041.00;5120858;27;20066;-70
2024/01/10 08:57:17;;;;;;;60.63;21.67;;;;;;;-5.70;80.32;103034.78;5120741;27;20781;-69
2024/01/10 08:59:42;;;;;;;60.07;20.00;;;;;;;-5.64;79.93;103035.66;5121035;27;20039;-66
2024/01/10 09:02:08;;;;;;;57.13;17.37;;;;;;;-5.58;79.23;103033.03;5120989;27;20069;-73
2024/01/10 09:04:33;;;;;;;50.57;19.50;;;;;;;-5.46;78.98;103037.31;5112743;28;20510;-69
2024/01/10 09:06:58;;;;;;;53.70;21.63;;;;;;;-5.39;78.68;103034.88;5120663;27;20122;-63
2024/01/10 09:09:24;;;;;;;43.28;14.07;;;;;;;-5.34;78.22;103029.66;5119209;28;20300;-69
2024/01/10 09:11:49;;;;;;;50.53;18.23;;;;;;;-5.25;78.28;103033.50;5120741;27;20031;-64
2024/01/10 09:14:15;;;;;;;46.00;16.60;;;;;;;-5.15;77.52;103033.13;5120503;27;20039;-70
2024/01/10 09:16:40;;;;;;;50.28;18.20;;;;;;;-5.09;77.43;103028.84;5120317;27;20120;-67
2024/01/10 09:19:06;;;;;;;48.23;15.30;;;;;;;-4.99;77.20;103042.28;5120272;27;20043;-70
2024/01/10 09:21:31;;;;;;;51.43;16.97;;;;;;;-4.92;76.19;103039.81;5112034;27;20563;-65
2024/01/10 09:23:56;;;;;;;65.53;17.40;;;;;;;-4.84;75.72;103036.66;5120608;27;20027;-66
2024/01/10 09:26:22;;;;;;;47.57;18.10;;;;;;;-4.72;75.36;103034.81;5120886;27;20971;-70
2024/01/10 09:28:48;;;;;;;49.58;15.85;;;;;;;-4.61;74.63;103034.66;5120344;27;20031;-68
2024/01/10 09:31:13;;;;;;;54.67;17.67;;;;;;;-4.55;74.63;103030.31;5120322;27;20081;-65
2024/01/10 09:33:38;;;;;;;50.38;17.42;;;;;;;-4.43;74.76;103025.88;5119085;28;20156;-66
2024/01/10 09:36:04;;;;;;;51.47;17.33;;;;;;;-4.41;74.08;103027.97;5111623;27;20494;-67
2024/01/10 09:38:34;;;;;;;54.93;18.27;;;;;;;-4.31;73.64;103026.63;5118824;28;20270;-69
2024/01/10 09:41:03;;;;;;;54.67;18.85;;;;;;;-4.22;73.47;103026.22;5119892;27;20406;-68
2024/01/10 09:43:30;;;;;;;52.55;16.48;;;;;;;-4.15;72.37;103025.41;5120847;27;20035;-64
2024/01/10 09:45:58;;;;;;;54.08;16.83;;;;;;;-4.06;71.73;103032.72;5110424;27;20049;-68
2024/01/10 09:48:24;;;;;;;43.55;15.73;;;;;;;-3.98;72.07;103026.00;5105090;28;20453;-65
2024/01/10 09:50:51;;;;;;;48.90;17.80;;;;;;;-3.97;70.95;103021.06;5106494;28;20412;-67
2024/01/10 09:53:23;;;;;;;43.23;14.40;;;;;;;-3.82;70.94;103024.75;5105743;27;20071;-65
2024/01/10 09:55:49;;;;;;;52.20;16.30;;;;;;;-3.72;70.72;103019.16;5105707;28;20124;-70
2024/01/10 09:58:15;;;;;;;45.53;16.63;;;;;;;-3.61;70.58;103027.63;5104441;28;20138;-67
2024/01/10 10:00:40;;;;;;;49.60;16.93;;;;;;;-3.59;69.42;103015.81;5105749;28;20544;-66
2024/01/10 10:03:12;;;;;;;45.43;16.63;;;;;;;-3.50;69.31;103010.94;5105072;28;20039;-72
2024/01/10 10:05:39;;;;;;;52.43;16.90;;;;;;;-3.45;69.09;103009.88;5105994;28;20327;-68
2024/01/10 10:08:09;;;;;;;47.25;17.00;;;;;;;-3.35;68.56;103009.44;5105737;28;20032;-66
2024/01/10 10:10:35;;;;;;;47.28;16.95;;;;;;;-3.31;68.00;103012.66;5106146;28;20846;-68
2024/01/10 10:13:00;;;;;;;43.90;15.37;;;;;;;-3.24;68.46;103011.78;5102112;28;20073;-67
2024/01/10 10:15:29;;;;;;;49.77;16.23;;;;;;;-3.19;68.22;103009.06;5104726;28;20045;-65
2024/01/10 10:17:54;;;;;;;48.90;17.73;;;;;;;-3.13;68.13;103012.47;5106540;28;20475;-65
2024/01/10 10:20:24;;;;;;;47.63;16.38;;;;;;;-3.05;68.01;103010.88;5103600;27;20074;-66
2024/01/10 10:23:03;;;;;;;47.27;17.43;;;;;;;-2.94;68.17;103004.50;5105415;28;20067;-68
2024/01/10 10:25:31;;;;;;;43.65;15.50;;;;;;;-2.91;68.17;103004.94;5087002;28;20514;-64
2024/01/10 10:27:57;;;;;;;46.78;15.13;;;;;;;-2.89;66.95;103013.78;5105767;28;20036;-63
2024/01/10 10:30:22;;;;;;;40.20;16.30;;;;;;;-2.83;67.09;103000.00;5104710;28;20031;-65
2024/01/10 10:32:48;;;;;;;48.20;16.13;;;;;;;-2.82;66.54;102999.28;5104946;28;20398;-68
2024/01/10 10:35:13;;;;;;;51.73;17.10;;;;;;;-2.75;66.21;102995.81;5104563;28;20885;-65
2024/01/10 10:37:39;;;;;;;48.13;16.20;;;;;;;-2.72;65.32;102988.47;5105460;28;20035;-70
2024/01/10 10:40:08;;;;;;;38.63;13.60;;;;;;;-2.68;65.21;102999.41;5105372;28;20883;-66
2024/01/10 10:42:34;;;;;;;47.25;15.77;;;;;;;-2.63;65.09;102994.81;5104254;28;20590;-69
2024/01/10 10:45:03;;;;;;;41.93;15.37;;;;;;;-2.56;65.35;102997.44;5105179;28;20126;-67
2024/01/10 10:47:36;;;;;;;42.92;14.23;;;;;;;-2.54;64.33;102996.00;5103659;28;20046;-69
2024/01/10 10:50:03;;;;;;;47.53;15.60;;;;;;;-2.53;63.62;102990.09;5104198;28;20035;-70
2024/01/10 10:52:31;;;;;;;44.72;15.18;;;;;;;-2.49;63.39;102981.97;5103527;28;20053;-67
2024/01/10 10:54:58;;;;;;;41.43;15.07;;;;;;;-2.45;63.42;102980.69;5103931;28;20538;-65
2024/01/10 10:57:26;;;;;;;42.60;15.18;;;;;;;-2.39;63.92;102979.84;5102198;28;20055;-68
2024/01/10 10:59:53;;;;;;;46.03;15.82;;;;;;;-2.34;63.66;102971.00;5104863;28;20031;-65
2024/01/10 11:02:23;;;;;;;48.42;14.93;;;;;;;-2.29;63.03;102971.56;5086489;28;20081;-64
2024/01/10 11:04:49;;;;;;;37.95;12.82;;;;;;;-2.22;62.79;102967.34;5099379;28;20040;-64
2024/01/10 11:07:14;;;;;;;46.00;14.83;;;;;;;-2.22;61.03;102972.53;5104951;28;20035;-66
2024/01/10 11:09:42;;;;;;;45.73;16.97;;;;;;;-2.14;61.30;102970.00;5105082;28;20039;-66
2024/01/10 11:12:19;;;;;;;37.08;13.63;;;;;;;-2.10;60.82;102961.88;5104010;28;20114;-67
2024/01/10 11:15:26;;;;;;;39.97;13.93;;;;;;;-2.06;60.67;102965.03;5103262;28;20049;-67
2024/01/10 11:18:29;;;;;;;36.38;12.68;;;;;;;-2.00;60.32;102972.66;5105610;28;20068;-66
2024/01/10 11:21:04;;;;;;;36.70;14.10;;;;;;;-1.95;59.82;102968.97;5105138;28;20118;-65
2024/01/10 11:23:44;;;;;;;43.45;15.05;;;;;;;-1.87;59.96;102958.84;5104591;28;20053;-65
2024/01/10 11:26:10;;;;;;;44.20;13.07;;;;;;;-1.89;59.34;102957.75;5104937;28;20047;-66
2024/01/10 11:28:37;;;;;;;40.08;14.10;;;;;;;-1.81;59.62;102962.19;5106403;28;20031;-65
2024/01/10 11:31:03;;;;;;;37.50;14.30;;;;;;;-1.79;58.90;102958.16;5105643;28;20031;-65
2024/01/10 11:33:33;;;;;;;34.87;12.70;;;;;;;-1.70;59.36;102958.34;5105461;28;20550;-64
2024/01/10 11:36:09;;;;;;;45.75;15.48;;;;;;;-1.60;60.13;102953.59;5104499;28;20042;-65
2024/01/10 11:38:39;;;;;;;40.63;15.23;;;;;;;-1.53;60.09;102945.81;5104909;28;20050;-62
2024/01/10 11:41:04;;;;;;;40.53;15.13;;;;;;;-1.50;58.84;102956.56;5101410;28;20030;-64
2024/01/10 11:43:30;;;;;;;47.43;17.33;;;;;;;-1.41;59.25;102955.09;5104126;28;20027;-65
2024/01/10 11:45:55;;;;;;;39.80;13.07;;;;;;;-1.34;58.49;102954.22;5104150;28;20222;-65
2024/01/10 11:48:27;;;;;;;35.07;14.43;;;;;;;-1.33;57.97;102956.97;5104180;28;20126;-64
2024/01/10 11:50:54;;;;;;;41.50;14.05;;;;;;;-1.30;57.26;102943.47;5104256;28;20039;-63
2024/01/10 11:53:57;;;;;;;46.08;14.90;;;;;;;-1.18;57.34;102954.38;5103982;28;20365;-63
2024/01/10 11:56:22;;;;;;;39.97;14.45;;;;;;;-1.17;56.18;102951.06;5103563;28;20039;-66
2024/01/10 11:58:55;;;;;;;44.20;15.03;;;;;;;-1.19;55.47;102955.16;5104316;28;20043;-64
2024/01/10 12:01:22;;;;;;;38.75;14.20;;;;;;;-1.09;56.44;102953.88;5104086;28;20043;-64
2024/01/10 12:03:52;;;;;;;39.47;13.68;;;;;;;-1.06;56.67;102945.53;5103866;28;20400;-65
2024/01/10 12:06:17;;;;;;;38.90;14.17;;;;;;;-1.00;56.56;102941.09;5101537;28;20035;-65
2024/01/10 12:08:43;;;;;;;36.22;14.60;;;;;;;-0.92;56.39;102938.69;5103831;28;20513;-65
2024/01/10 12:11:08;;;;;;;44.07;13.30;;;;;;;-0.92;55.49;102943.88;5100152;28;20032;-66
2024/01/10 12:13:34;;;;;;;49.07;13.37;;;;;;;-0.84;55.17;102943.88;5103553;28;20031;-63
2024/01/10 12:15:59;;;;;;;46.15;13.73;;;;;;;-0.75;55.56;102935.53;5102979;28;20400;-64
2024/01/10 12:18:25;;;;;;;30.07;13.27;;;;;;;-0.57;54.69;102932.53;5102860;28;20047;-66
2024/01/10 12:20:50;;;;;;;40.77;13.93;;;;;;;1.48;51.96;102921.69;5103295;28;20534;-64
2024/01/10 12:23:16;;;;;;;39.33;13.13;;;;;;;3.75;46.73;102920.13;5101454;28;20065;-64
2024/01/10 12:25:42;;;;;;;29.60;10.57;;;;;;;4.64;44.37;102911.69;5101327;28;20334;-67